Time;durP1;ratioP1;P1;durP2;ratioP2;P2;SDS_P1;SDS_P2;PMS_P1;PMS_P2;Temp;Humidity;BMP_temperature;BMP_pressure;BME280_temperature;BME280_humidity;BME280_pressure;Samples;Min_cycle;Max_cycle;Signal;HPM_P1;HPM_P2
2022/12/05 00:00:00;;;;;;;7.43;7.23;;;6.40;99.90;;;;;;5092377;28;20297;-81
2022/12/05 00:02:27;;;;;;;7.70;7.50;;;6.40;99.90;;;;;;5101841;28;20252;-81
2022/12/05 00:04:55;;;;;;;7.70;7.50;;;6.30;99.90;;;;;;5100313;28;20230;-81
2022/12/05 00:07:24;;;;;;;7.60;7.40;;;6.30;99.90;;;;;;5101730;28;20222;-81
2022/12/05 00:09:52;;;;;;;7.50;7.30;;;6.40;99.90;;;;;;5098766;28;20294;-80
2022/12/05 00:12:20;;;;;;;7.53;7.33;;;6.30;99.90;;;;;;5103917;28;20229;-81
2022/12/05 00:14:51;;;;;;;7.70;7.50;;;6.30;99.90;;;;;;5102616;28;20252;-81
2022/12/05 00:17:21;;;;;;;7.57;7.37;;;6.30;99.90;;;;;;5101970;28;20666;-81
2022/12/05 00:19:52;;;;;;;7.57;7.37;;;6.30;99.90;;;;;;5100647;28;20230;-81
2022/12/05 00:22:28;;;;;;;7.70;7.50;;;6.30;99.90;;;;;;5103126;28;20234;-81
2022/12/05 00:24:59;;;;;;;7.63;7.43;;;6.20;99.90;;;;;;5100611;28;20280;-81
2022/12/05 00:27:27;;;;;;;7.60;7.40;;;6.00;99.90;;;;;;5102086;28;20237;-81
2022/12/05 00:29:58;;;;;;;7.63;7.43;;;6.00;99.90;;;;;;5104423;28;20241;-82
2022/12/05 00:32:25;;;;;;;7.43;7.23;;;5.90;99.90;;;;;;5100523;28;20285;-80
2022/12/05 00:34:53;;;;;;;7.50;7.30;;;5.90;99.90;;;;;;5089191;28;20251;-81
2022/12/05 00:37:21;;;;;;;7.40;7.20;;;5.80;99.90;;;;;;5088823;28;20285;-81
2022/12/05 00:39:50;;;;;;;7.60;7.40;;;5.80;99.90;;;;;;5088083;28;20233;-80
2022/12/05 00:42:18;;;;;;;7.40;7.20;;;5.80;99.90;;;;;;5086498;28;20230;-81
2022/12/05 00:44:45;;;;;;;7.50;7.30;;;5.80;99.90;;;;;;5086606;28;20226;-80
2022/12/05 00:47:13;;;;;;;7.60;7.40;;;5.80;99.90;;;;;;5086728;28;20297;-80
2022/12/05 00:49:41;;;;;;;7.70;7.50;;;5.90;99.90;;;;;;5085951;28;20230;-80
2022/12/05 00:52:08;;;;;;;7.47;7.27;;;5.90;99.90;;;;;;5085886;28;20265;-80
2022/12/05 00:54:36;;;;;;;7.50;7.30;;;5.90;99.90;;;;;;5085695;28;20292;-79
2022/12/05 00:57:05;;;;;;;7.40;7.20;;;5.90;99.90;;;;;;5087069;28;20320;-80
2022/12/05 00:59:33;;;;;;;7.50;7.30;;;5.90;99.90;;;;;;5069692;28;20235;-80
2022/12/05 01:02:01;;;;;;;7.50;7.30;;;5.90;99.90;;;;;;5080005;28;20234;-80
2022/12/05 01:04:29;;;;;;;7.50;7.30;;;5.90;99.90;;;;;;5085805;28;20234;-80
2022/12/05 01:06:58;;;;;;;7.60;7.40;;;5.90;99.90;;;;;;5094723;28;20283;-80
2022/12/05 01:09:26;;;;;;;7.70;7.50;;;5.80;99.90;;;;;;5100775;28;20222;-79
2022/12/05 01:11:54;;;;;;;7.50;7.30;;;5.80;99.90;;;;;;5099150;28;20234;-80
2022/12/05 01:14:26;;;;;;;7.67;7.47;;;5.70;99.90;;;;;;5086893;28;20273;-80
2022/12/05 01:16:56;;;;;;;7.47;7.27;;;5.70;99.90;;;;;;5087019;28;20248;-80
2022/12/05 01:19:26;;;;;;;7.60;7.40;;;5.70;99.90;;;;;;5085657;28;20234;-80
2022/12/05 01:21:56;;;;;;;7.53;7.33;;;5.60;99.90;;;;;;5085862;28;20241;-80
2022/12/05 01:24:26;;;;;;;7.63;7.43;;;5.60;99.90;;;;;;5085472;28;20230;-79
2022/12/05 01:26:53;;;;;;;7.60;7.40;;;5.60;99.90;;;;;;5089326;28;20261;-81
2022/12/05 01:29:24;;;;;;;7.57;7.37;;;5.60;99.90;;;;;;5085811;28;20276;-79
2022/12/05 01:31:53;;;;;;;7.50;7.30;;;5.60;99.90;;;;;;5086354;28;20245;-81
2022/12/05 01:34:22;;;;;;;7.53;7.33;;;5.60;99.90;;;;;;5096973;28;20304;-80
2022/12/05 01:36:50;;;;;;;7.60;7.40;;;5.60;99.90;;;;;;5098783;28;20222;-80
2022/12/05 01:39:18;;;;;;;7.73;7.53;;;5.60;99.90;;;;;;5099010;28;20202;-81
2022/12/05 01:41:49;;;;;;;7.50;7.30;;;5.60;99.90;;;;;;5098701;28;20538;-80
2022/12/05 01:45:03;;;;;;;7.70;7.50;;;5.60;99.90;;;;;;5095662;28;20265;-79
2022/12/05 01:47:35;;;;;;;7.60;7.40;;;5.70;99.90;;;;;;5089704;28;20230;-81
2022/12/05 01:50:04;;;;;;;7.53;7.33;;;5.70;99.90;;;;;;5089770;28;20242;-80
2022/12/05 01:52:34;;;;;;;7.57;7.37;;;5.70;99.90;;;;;;5088957;28;20230;-80
2022/12/05 01:55:09;;;;;;;7.57;7.37;;;5.70;99.90;;;;;;5090184;28;20258;-80
2022/12/05 01:57:37;;;;;;;7.40;7.20;;;5.70;99.90;;;;;;5088851;28;20321;-80
2022/12/05 02:00:12;;;;;;;7.30;7.10;;;5.70;99.90;;;;;;5087552;28;20246;-81
2022/12/05 02:02:43;;;;;;;7.30;7.10;;;5.70;99.90;;;;;;5086085;28;20222;-80
2022/12/05 02:05:18;;;;;;;7.13;6.93;;;5.80;99.90;;;;;;5083883;28;20268;-80
2022/12/05 02:07:47;;;;;;;7.30;7.10;;;5.80;99.90;;;;;;5084978;28;20229;-81
2022/12/05 02:10:16;;;;;;;7.40;7.20;;;5.70;99.90;;;;;;5084987;28;20233;-81
2022/12/05 02:12:45;;;;;;;7.27;7.07;;;5.80;99.90;;;;;;5089483;28;20225;-80
2022/12/05 02:15:36;;;;;;;7.17;6.97;;;5.70;99.90;;;;;;5087733;28;20295;-80
2022/12/05 02:18:17;;;;;;;7.20;7.00;;;5.80;99.90;;;;;;5085758;28;20272;-81
2022/12/05 02:21:03;;;;;;;7.20;7.00;;;5.80;99.90;;;;;;5085147;28;20241;-81
2022/12/05 02:24:08;;;;;;;7.20;7.00;;;5.80;99.90;;;;;;5084768;28;20321;-80
2022/12/05 02:27:09;;;;;;;7.27;7.07;;;5.80;99.90;;;;;;5080558;28;20250;-81
2022/12/05 02:30:10;;;;;;;7.30;7.10;;;5.80;99.90;;;;;;5076000;28;20230;-80
2022/12/05 02:33:07;;;;;;;7.13;6.93;;;5.70;99.90;;;;;;5083068;28;20225;-81
2022/12/05 02:35:49;;;;;;;7.20;7.00;;;5.70;99.90;;;;;;5081718;28;20245;-80
2022/12/05 02:38:28;;;;;;;7.20;7.00;;;5.70;99.90;;;;;;5083312;28;20739;-81
2022/12/05 02:41:06;;;;;;;7.10;6.90;;;5.70;99.90;;;;;;5083426;28;20262;-81
2022/12/05 02:43:42;;;;;;;7.30;7.10;;;5.70;99.90;;;;;;5079617;28;20324;-81
2022/12/05 02:46:17;;;;;;;7.30;7.10;;;5.60;99.90;;;;;;5089284;28;20233;-80
2022/12/05 02:48:48;;;;;;;7.17;6.97;;;5.60;99.90;;;;;;5092728;28;20226;-80
2022/12/05 02:51:20;;;;;;;7.20;7.00;;;5.60;99.90;;;;;;5079375;28;20214;-81
2022/12/05 02:53:50;;;;;;;7.13;6.93;;;5.60;99.90;;;;;;5079600;28;20321;-80
2022/12/05 02:56:18;;;;;;;7.20;7.00;;;5.50;99.90;;;;;;5080348;28;20232;-80
2022/12/05 02:58:53;;;;;;;7.50;7.30;;;5.50;99.90;;;;;;5081909;28;20264;-80
2022/12/05 03:01:27;;;;;;;7.57;7.37;;;5.50;99.90;;;;;;5080768;28;20233;-80
2022/12/05 03:03:56;;;;;;;7.60;7.40;;;5.50;99.90;;;;;;5081988;28;20218;-81
2022/12/05 03:06:29;;;;;;;7.50;7.30;;;5.40;99.90;;;;;;5081162;28;20332;-81
2022/12/05 03:09:02;;;;;;;7.60;7.40;;;5.30;99.90;;;;;;5081619;28;20282;-80
2022/12/05 03:11:36;;;;;;;7.67;7.47;;;5.30;99.90;;;;;;5081014;28;20262;-80
2022/12/05 03:14:07;;;;;;;7.70;7.50;;;5.20;99.90;;;;;;5081327;28;20265;-82
2022/12/05 03:16:41;;;;;;;7.80;7.60;;;5.20;99.90;;;;;;5080999;28;20289;-80
2022/12/05 03:19:17;;;;;;;7.70;7.50;;;5.10;99.90;;;;;;5080794;28;20260;-80
2022/12/05 03:21:53;;;;;;;7.90;7.70;;;5.10;99.90;;;;;;5080796;28;20237;-80
2022/12/05 03:24:21;;;;;;;8.00;7.80;;;5.10;99.90;;;;;;5081400;28;20233;-81
2022/12/05 03:26:58;;;;;;;7.90;7.70;;;5.10;99.90;;;;;;5081518;28;20226;-80
2022/12/05 03:29:33;;;;;;;7.90;7.70;;;5.10;99.90;;;;;;5079181;28;20218;-79
2022/12/05 03:32:09;;;;;;;7.73;7.53;;;5.10;99.90;;;;;;5079473;28;20325;-80
2022/12/05 03:34:50;;;;;;;7.80;7.60;;;5.00;99.90;;;;;;5080509;28;20744;-81
2022/12/05 03:37:27;;;;;;;7.90;7.70;;;5.00;99.90;;;;;;5081032;28;20240;-80
2022/12/05 03:40:06;;;;;;;7.67;7.47;;;5.00;99.90;;;;;;5081885;28;20301;-80
2022/12/05 03:42:37;;;;;;;7.60;7.40;;;5.00;99.90;;;;;;5081707;28;20279;-80
2022/12/05 03:45:11;;;;;;;7.90;7.70;;;5.00;99.90;;;;;;5081917;28;20234;-80
2022/12/05 03:47:50;;;;;;;7.77;7.57;;;5.00;99.90;;;;;;5082762;28;20325;-80
2022/12/05 03:50:24;;;;;;;7.70;7.50;;;5.00;99.90;;;;;;5082008;28;20234;-80
2022/12/05 03:52:57;;;;;;;7.43;7.23;;;4.90;99.90;;;;;;5081790;28;20320;-80
2022/12/05 03:55:29;;;;;;;7.67;7.47;;;4.90;99.90;;;;;;5081038;28;20230;-80
2022/12/05 03:58:00;;;;;;;7.50;7.30;;;4.90;99.90;;;;;;5080905;28;20317;-80
2022/12/05 04:00:32;;;;;;;7.60;7.40;;;4.90;99.90;;;;;;5080878;28;20254;-80
2022/12/05 04:03:10;;;;;;;7.30;7.10;;;4.90;99.90;;;;;;5080687;28;20295;-80
2022/12/05 04:05:45;;;;;;;7.30;7.10;;;4.90;99.90;;;;;;5080889;28;20293;-80
2022/12/05 04:08:18;;;;;;;7.40;7.20;;;4.90;99.90;;;;;;5093592;28;20229;-81
2022/12/05 04:10:49;;;;;;;7.50;7.30;;;4.80;99.90;;;;;;5113143;28;20247;-80
2022/12/05 04:13:22;;;;;;;7.30;7.10;;;4.80;99.90;;;;;;5108467;28;20248;-81
2022/12/05 04:18:51;;;;;;;7.40;7.20;;;4.80;99.90;;;;;;5109464;28;20216;-80
2022/12/05 04:21:39;;;;;;;7.20;7.00;;;4.80;99.90;;;;;;5106522;28;20256;-81
2022/12/05 04:27:12;;;;;;;7.50;7.30;;;4.70;99.90;;;;;;5088859;28;20215;-80
2022/12/05 04:29:48;;;;;;;7.43;7.23;;;4.70;99.90;;;;;;5084699;28;20256;-80
2022/12/05 04:32:18;;;;;;;7.27;7.07;;;4.70;99.90;;;;;;5084939;28;20253;-80
2022/12/05 04:34:57;;;;;;;7.00;6.80;;;4.70;99.90;;;;;;5085113;28;20245;-80
2022/12/05 04:37:26;;;;;;;7.20;7.00;;;4.70;99.90;;;;;;5092103;28;20210;-80
2022/12/05 04:39:59;;;;;;;7.30;7.10;;;4.60;99.90;;;;;;5101767;28;20220;-80
2022/12/05 04:42:30;;;;;;;7.03;6.83;;;4.60;99.90;;;;;;5101489;28;20249;-79
2022/12/05 04:45:04;;;;;;;7.03;6.83;;;4.60;99.90;;;;;;5098916;28;20230;-80
2022/12/05 04:47:37;;;;;;;7.17;6.97;;;4.50;99.90;;;;;;5088115;28;20224;-80
2022/12/05 04:50:11;;;;;;;7.20;7.00;;;4.60;99.90;;;;;;5086839;28;20241;-80
2022/12/05 04:52:42;;;;;;;7.17;6.97;;;4.50;99.90;;;;;;5086088;28;20269;-80
2022/12/05 04:55:12;;;;;;;7.30;7.10;;;4.50;99.90;;;;;;5085089;28;20230;-80
2022/12/05 04:57:52;;;;;;;7.20;7.00;;;4.50;99.90;;;;;;5085593;28;20301;-79
2022/12/05 05:00:20;;;;;;;7.30;7.10;;;4.50;99.90;;;;;;5081924;28;20226;-80
2022/12/05 05:02:56;;;;;;;7.23;7.03;;;4.50;99.90;;;;;;5082325;28;20226;-81
2022/12/05 05:05:27;;;;;;;7.13;6.93;;;4.40;99.90;;;;;;5081630;28;20222;-81
2022/12/05 05:07:56;;;;;;;7.10;6.90;;;4.50;99.90;;;;;;5082173;28;20317;-80
2022/12/05 05:10:40;;;;;;;7.10;6.90;;;4.40;99.90;;;;;;5083377;28;20309;-81
2022/12/05 05:13:07;;;;;;;7.30;7.10;;;4.40;99.90;;;;;;5083576;28;20257;-80
2022/12/05 05:15:36;;;;;;;7.40;7.20;;;4.40;99.90;;;;;;5083371;28;21201;-81
2022/12/05 05:18:04;;;;;;;7.30;7.10;;;4.40;99.90;;;;;;5083145;28;20250;-80
2022/12/05 05:20:33;;;;;;;7.20;7.00;;;4.40;99.90;;;;;;5083702;28;20230;-80
2022/12/05 05:23:01;;;;;;;7.27;7.07;;;4.40;99.90;;;;;;5085309;28;20218;-80
2022/12/05 05:25:29;;;;;;;7.20;7.00;;;4.40;99.90;;;;;;5086471;28;20241;-83
2022/12/05 05:27:57;;;;;;;7.10;6.90;;;4.40;99.90;;;;;;5088872;28;20214;-80
2022/12/05 05:30:26;;;;;;;7.10;6.90;;;4.30;99.90;;;;;;5090382;28;20273;-81
2022/12/05 05:32:55;;;;;;;7.07;6.87;;;4.30;99.90;;;;;;5086723;28;20245;-81
2022/12/05 05:35:23;;;;;;;7.10;6.90;;;4.30;99.90;;;;;;5086221;28;20286;-80
2022/12/05 05:37:55;;;;;;;7.40;7.20;;;4.30;99.90;;;;;;5086060;28;20253;-80
2022/12/05 05:40:23;;;;;;;7.40;7.20;;;4.30;99.90;;;;;;5084892;28;20230;-81
2022/12/05 05:42:51;;;;;;;7.30;7.10;;;4.30;99.90;;;;;;5085093;28;20264;-79
2022/12/05 05:45:19;;;;;;;7.20;7.00;;;4.30;99.90;;;;;;5086660;28;20265;-81
2022/12/05 05:47:48;;;;;;;7.30;7.10;;;4.30;99.90;;;;;;5081221;28;20226;-80
2022/12/05 05:50:16;;;;;;;7.30;7.10;;;4.30;99.90;;;;;;5081441;28;20238;-79
2022/12/05 05:52:44;;;;;;;7.50;7.30;;;4.30;99.90;;;;;;5081007;28;20229;-80
2022/12/05 05:55:13;;;;;;;7.50;7.30;;;4.20;99.90;;;;;;5083131;28;20296;-79
2022/12/05 05:57:41;;;;;;;7.50;7.30;;;4.10;99.90;;;;;;5112154;22;20302;-82
2022/12/05 06:02:54;;;;;;;7.20;7.00;;;4.00;99.90;;;;;;5068390;28;20226;-81
2022/12/05 06:05:23;;;;;;;7.40;7.20;;;3.90;99.90;;;;;;5076608;28;20234;-81
2022/12/05 06:07:52;;;;;;;7.43;7.23;;;3.90;99.90;;;;;;5077843;28;20219;-80
2022/12/05 06:10:32;;;;;;;7.33;7.13;;;3.90;99.90;;;;;;5076290;28;20250;-81
2022/12/05 06:13:00;;;;;;;7.50;7.30;;;3.90;99.90;;;;;;5076710;28;20242;-82
2022/12/05 06:15:29;;;;;;;7.60;7.40;;;3.90;99.90;;;;;;5077020;28;20235;-81
2022/12/05 06:18:02;;;;;;;7.63;7.43;;;3.80;99.90;;;;;;5076460;28;20231;-81
2022/12/05 06:20:38;;;;;;;7.80;7.60;;;3.80;99.90;;;;;;5076752;28;20239;-81
2022/12/05 06:23:07;;;;;;;7.57;7.37;;;3.80;99.90;;;;;;5075449;28;20242;-81
2022/12/05 06:25:39;;;;;;;7.60;7.40;;;3.80;99.90;;;;;;5076724;28;20219;-81
2022/12/05 06:28:06;;;;;;;7.67;7.47;;;3.80;99.90;;;;;;5076716;28;20230;-81
2022/12/05 06:30:35;;;;;;;7.80;7.60;;;3.60;99.90;;;;;;5076697;28;20235;-81
2022/12/05 06:33:05;;;;;;;7.77;7.57;;;3.50;99.90;;;;;;5077213;28;20254;-81
2022/12/05 06:35:34;;;;;;;7.80;7.60;;;3.50;99.90;;;;;;5075521;28;20257;-82
2022/12/05 06:38:06;;;;;;;7.80;7.60;;;3.40;99.90;;;;;;5075821;28;20293;-81
2022/12/05 06:40:34;;;;;;;7.60;7.40;;;3.40;99.90;;;;;;5076514;28;20231;-81
2022/12/05 06:43:05;;;;;;;7.50;7.30;;;3.40;99.90;;;;;;5073014;28;20239;-81
2022/12/05 06:45:33;;;;;;;7.67;7.47;;;3.40;99.90;;;;;;5075784;28;20250;-82
2022/12/05 06:48:02;;;;;;;7.47;7.27;;;3.40;99.90;;;;;;5071990;28;20235;-81
2022/12/05 06:50:32;;;;;;;7.77;7.57;;;3.40;99.90;;;;;;5070126;28;20237;-82
2022/12/05 06:53:00;;;;;;;7.43;7.23;;;3.40;99.90;;;;;;5068677;28;20261;-82
2022/12/05 06:55:30;;;;;;;7.80;7.60;;;3.30;99.90;;;;;;5068637;28;20294;-82
2022/12/05 06:57:59;;;;;;;7.90;7.70;;;3.30;99.90;;;;;;5068389;28;20218;-82
2022/12/05 07:03:24;;;;;;;7.53;7.33;;;3.30;99.90;;;;;;5067535;28;20223;-82
2022/12/05 07:05:54;;;;;;;7.60;7.40;;;3.30;99.90;;;;;;5067547;28;20235;-81
2022/12/05 07:08:23;;;;;;;7.73;7.53;;;3.30;99.90;;;;;;5067308;28;20231;-82
2022/12/05 07:10:53;;;;;;;7.53;7.33;;;3.30;99.90;;;;;;5067213;28;20241;-82
2022/12/05 07:13:22;;;;;;;8.00;7.80;;;3.40;99.90;;;;;;5067602;28;20242;-82
2022/12/05 07:16:01;;;;;;;8.00;7.80;;;3.40;99.90;;;;;;5071297;28;20254;-82
2022/12/05 07:18:31;;;;;;;7.80;7.60;;;3.40;99.90;;;;;;5068203;28;20698;-82
2022/12/05 07:21:01;;;;;;;7.97;7.77;;;3.50;99.90;;;;;;5066980;28;20258;-82
2022/12/05 07:23:28;;;;;;;7.97;7.77;;;3.50;99.90;;;;;;5066840;28;20226;-82
2022/12/05 07:25:58;;;;;;;7.87;7.67;;;3.50;99.90;;;;;;5068047;28;20238;-82
2022/12/05 07:28:27;;;;;;;8.00;7.80;;;3.50;99.90;;;;;;5067899;28;20221;-81
2022/12/05 07:31:07;;;;;;;7.70;7.50;;;3.50;99.90;;;;;;5063264;28;20318;-82
2022/12/05 07:33:35;;;;;;;7.90;7.70;;;3.50;99.90;;;;;;5066617;28;20232;-81
2022/12/05 07:36:06;;;;;;;7.70;7.50;;;3.50;99.90;;;;;;5065789;28;20219;-81
2022/12/05 07:38:34;;;;;;;7.80;7.60;;;3.50;99.90;;;;;;5067399;28;20214;-82
2022/12/05 07:41:06;;;;;;;7.90;7.70;;;3.50;99.90;;;;;;5070978;28;20226;-82
2022/12/05 07:43:33;;;;;;;7.90;7.70;;;3.50;99.90;;;;;;5072672;28;20241;-81
2022/12/05 07:46:12;;;;;;;7.93;7.73;;;3.50;99.90;;;;;;5070323;28;20321;-81
2022/12/05 07:48:41;;;;;;;7.53;7.33;;;3.40;99.90;;;;;;5070126;28;20262;-81
2022/12/05 07:51:10;;;;;;;7.80;7.60;;;3.40;99.90;;;;;;5069757;28;20227;-81
2022/12/05 07:53:42;;;;;;;7.87;7.67;;;3.40;99.90;;;;;;5070694;28;20351;-80
2022/12/05 07:56:13;;;;;;;7.77;7.57;;;3.40;99.90;;;;;;5069613;28;20225;-82
2022/12/05 07:58:42;;;;;;;7.70;7.50;;;3.40;99.90;;;;;;5069969;28;20238;-81
2022/12/05 08:01:18;;;;;;;7.80;7.60;;;3.40;99.90;;;;;;5068870;28;20292;-81
2022/12/05 08:03:48;;;;;;;7.70;7.50;;;3.50;99.90;;;;;;5069335;28;20236;-81
2022/12/05 08:06:18;;;;;;;7.90;7.70;;;3.50;99.90;;;;;;5069333;28;20231;-83
2022/12/05 08:08:48;;;;;;;7.60;7.40;;;3.50;99.90;;;;;;5069059;28;20222;-81
2022/12/05 08:11:19;;;;;;;7.47;7.27;;;3.50;99.90;;;;;;5068519;28;20242;-81
2022/12/05 08:13:47;;;;;;;7.50;7.30;;;3.50;99.90;;;;;;5069780;28;20235;-81
2022/12/05 08:16:24;;;;;;;7.50;7.30;;;3.50;99.90;;;;;;5077198;28;20243;-81
2022/12/05 08:21:41;;;;;;;7.70;7.50;;;3.50;99.90;;;;;;5070362;28;20257;-81
2022/12/05 08:24:09;;;;;;;7.60;7.40;;;3.50;99.90;;;;;;5068583;28;20382;-81
2022/12/05 08:26:39;;;;;;;7.80;7.60;;;3.50;99.90;;;;;;5068526;28;20241;-84
2022/12/05 08:29:10;;;;;;;7.80;7.60;;;3.50;99.90;;;;;;5070466;28;20273;-83
2022/12/05 08:31:48;;;;;;;8.00;7.80;;;3.50;99.90;;;;;;5069394;28;20353;-84
2022/12/05 08:34:19;;;;;;;7.90;7.70;;;3.60;99.90;;;;;;5070034;28;20229;-83
2022/12/05 08:36:47;;;;;;;7.90;7.70;;;3.60;99.90;;;;;;5069809;28;20234;-82
2022/12/05 08:39:17;;;;;;;7.97;7.77;;;3.60;99.90;;;;;;5068980;28;20231;-82
2022/12/05 08:41:46;;;;;;;8.10;7.90;;;3.60;99.90;;;;;;5068198;28;20289;-82
2022/12/05 08:44:15;;;;;;;8.10;7.90;;;3.70;99.90;;;;;;5068844;28;20294;-83
2022/12/05 08:46:54;;;;;;;8.10;7.90;;;3.70;99.90;;;;;;5065301;28;20227;-83
2022/12/05 08:49:22;;;;;;;8.17;7.97;;;3.70;99.90;;;;;;5068430;28;20227;-83
2022/12/05 08:51:54;;;;;;;8.50;8.30;;;3.80;99.90;;;;;;5067897;28;20369;-83
2022/12/05 08:54:21;;;;;;;8.27;8.07;;;3.90;99.90;;;;;;5068131;28;20242;-83
2022/12/05 08:56:51;;;;;;;7.97;7.77;;;4.00;99.90;;;;;;5067616;28;20333;-83
2022/12/05 08:59:20;;;;;;;8.20;8.00;;;4.00;99.90;;;;;;5068682;28;20227;-82
2022/12/05 09:01:51;;;;;;;8.03;7.83;;;4.10;99.90;;;;;;5067628;28;20378;-83
2022/12/05 09:04:19;;;;;;;8.27;8.07;;;4.10;99.90;;;;;;5068974;28;20705;-83
2022/12/05 09:06:50;;;;;;;8.20;8.00;;;4.10;99.90;;;;;;5068721;28;20235;-83
2022/12/05 09:09:18;;;;;;;8.30;8.10;;;4.10;99.90;;;;;;5068400;28;20242;-82
2022/12/05 09:11:49;;;;;;;8.60;8.40;;;4.10;99.90;;;;;;5068607;28;20257;-82
2022/12/05 09:14:19;;;;;;;8.40;8.20;;;4.00;99.90;;;;;;5068678;28;20231;-84
2022/12/05 09:16:49;;;;;;;8.27;8.07;;;4.00;99.90;;;;;;5068254;28;20392;-83
2022/12/05 09:19:26;;;;;;;8.40;8.20;;;4.00;99.90;;;;;;5067468;28;20234;-83
2022/12/05 09:21:54;;;;;;;8.30;8.10;;;4.00;99.90;;;;;;5068135;28;20292;-84
2022/12/05 09:24:23;;;;;;;8.00;7.80;;;4.00;99.90;;;;;;5067495;28;20241;-83
2022/12/05 09:26:52;;;;;;;8.00;7.80;;;4.00;99.90;;;;;;5066662;28;20257;-83
2022/12/05 09:29:24;;;;;;;8.03;7.83;;;4.00;99.90;;;;;;5067909;28;20760;-85
2022/12/05 09:32:01;;;;;;;8.00;7.80;;;4.10;99.90;;;;;;5033391;28;20228;-83
2022/12/05 09:34:29;;;;;;;8.43;8.23;;;4.10;99.90;;;;;;5028104;28;20232;-83
2022/12/05 09:36:59;;;;;;;8.27;8.07;;;4.10;99.90;;;;;;5052462;28;20230;-83
2022/12/05 09:39:31;;;;;;;8.53;8.33;;;4.10;99.90;;;;;;5048160;28;20280;-84
2022/12/05 09:42:33;;;;;;;8.33;8.13;;;4.10;99.90;;;;;;5047118;28;20235;-83
2022/12/05 09:45:28;;;;;;;8.07;7.87;;;4.10;99.90;;;;;;5047110;28;20326;-81
2022/12/05 09:48:07;;;;;;;8.17;7.97;;;4.20;99.90;;;;;;5046852;28;20463;-85
2022/12/05 09:50:45;;;;;;;8.17;7.97;;;4.20;99.90;;;;;;5047420;28;20224;-87
2022/12/05 09:53:29;;;;;;;8.20;8.00;;;4.20;99.90;;;;;;5045039;28;20235;-86
2022/12/05 09:56:06;;;;;;;8.30;8.10;;;4.30;99.90;;;;;;5047578;28;20215;-85
2022/12/05 10:01:47;;;;;;;8.00;7.80;;;4.30;99.90;;;;;;5042760;28;20224;-86
2022/12/05 10:08:04;;;;;;;8.03;7.83;;;4.30;99.90;;;;;;5021880;28;20343;-90
2022/12/05 10:10:45;;;;;;;7.90;7.70;;;4.30;99.90;;;;;;5058261;28;20242;-87
2022/12/05 10:13:32;;;;;;;8.10;7.90;;;4.30;99.90;;;;;;5057594;28;20243;-86
2022/12/05 10:16:09;;;;;;;8.00;7.80;;;4.30;99.90;;;;;;5042038;28;20234;-87
2022/12/05 10:18:47;;;;;;;8.60;8.40;;;4.40;99.90;;;;;;5041566;28;20223;-85
2022/12/05 10:21:24;;;;;;;8.50;8.30;;;4.30;99.90;;;;;;5040587;28;20258;-86
2022/12/05 10:24:02;;;;;;;8.27;8.07;;;4.30;99.90;;;;;;5033477;28;20234;-87
2022/12/05 10:26:42;;;;;;;8.13;7.93;;;4.30;99.90;;;;;;5052224;28;20228;-88
2022/12/05 10:29:30;;;;;;;8.20;8.00;;;4.30;99.90;;;;;;5043369;28;20238;-86
2022/12/05 10:32:24;;;;;;;8.20;8.00;;;4.40;99.90;;;;;;5045229;28;20259;-87
2022/12/05 10:34:55;;;;;;;8.30;8.10;;;4.40;99.90;;;;;;5045624;28;20291;-84
2022/12/05 10:40:12;;;;;;;8.23;8.03;;;4.50;99.90;;;;;;5045115;28;20235;-85
2022/12/05 10:42:40;;;;;;;8.00;7.80;;;4.50;99.90;;;;;;5060423;28;20231;-84
2022/12/05 10:45:19;;;;;;;8.27;8.07;;;4.60;99.90;;;;;;5045167;28;20282;-85
2022/12/05 10:47:48;;;;;;;8.40;8.20;;;4.60;99.90;;;;;;5052457;28;20238;-83
2022/12/05 10:50:26;;;;;;;8.63;8.43;;;4.60;99.90;;;;;;5064119;28;20259;-87
2022/12/05 10:53:03;;;;;;;8.50;8.30;;;4.70;99.90;;;;;;5064769;28;20249;-85
2022/12/05 10:55:41;;;;;;;8.67;8.47;;;4.70;99.90;;;;;;5065535;28;20262;-86
2022/12/05 10:58:21;;;;;;;8.40;8.20;;;4.70;99.90;;;;;;5063803;28;20227;-87
2022/12/05 11:03:47;;;;;;;8.30;8.10;;;4.80;99.90;;;;;;5061989;28;20238;-86
2022/12/05 11:06:29;;;;;;;7.80;7.60;;;4.80;99.90;;;;;;5062046;28;20235;-89
2022/12/05 11:12:25;;;;;;;7.80;7.60;;;4.70;99.90;;;;;;5061851;28;20237;-86
2022/12/05 11:15:28;;;;;;;7.43;7.23;;;4.60;99.90;;;;;;5061462;28;20250;-88
2022/12/05 11:21:16;;;;;;;6.80;6.60;;;4.60;99.90;;;;;;5061235;28;20226;-87
2022/12/05 11:23:49;;;;;;;6.90;6.70;;;4.70;99.90;;;;;;5062188;28;20666;-87
2022/12/05 11:30:17;;;;;;;7.10;6.90;;;4.80;99.90;;;;;;5052971;28;20219;-86
2022/12/05 11:32:45;;;;;;;7.53;7.33;;;4.90;99.90;;;;;;5061257;28;20222;-88
2022/12/05 11:35:26;;;;;;;7.20;7.00;;;4.80;99.90;;;;;;5062011;28;20326;-86
2022/12/05 11:38:03;;;;;;;7.20;7.00;;;4.90;99.90;;;;;;5062963;28;20219;-85
2022/12/05 11:44:20;;;;;;;7.37;7.17;;;4.80;99.90;;;;;;5064838;28;20290;-86
2022/12/05 11:47:00;;;;;;;7.30;7.10;;;4.80;99.90;;;;;;5065054;28;20330;-86
2022/12/05 11:50:03;;;;;;;7.10;6.90;;;4.80;99.90;;;;;;5065455;28;20223;-85
2022/12/05 11:55:31;;;;;;;7.30;7.10;;;4.90;99.90;;;;;;5063812;28;20242;-85
2022/12/05 11:58:28;;;;;;;7.37;7.17;;;4.90;99.90;;;;;;5083242;22;20281;-79
2022/12/05 12:01:12;;;;;;;7.03;6.83;;;4.90;99.90;;;;;;5058653;28;20322;-79
2022/12/05 12:04:33;;;;;;;7.33;7.13;;;4.90;99.90;;;;;;5059931;28;20278;-80
2022/12/05 12:07:16;;;;;;;7.00;6.80;;;4.90;99.90;;;;;;5022646;28;20239;-80
2022/12/05 12:09:54;;;;;;;7.10;6.90;;;5.00;99.90;;;;;;5063213;28;20230;-81
2022/12/05 12:12:29;;;;;;;7.10;6.90;;;5.10;99.90;;;;;;5073947;28;20230;-80
2022/12/05 12:15:15;;;;;;;7.20;7.00;;;5.20;99.90;;;;;;5045724;28;20275;-81
2022/12/05 12:17:55;;;;;;;7.03;6.83;;;5.30;99.90;;;;;;5045228;28;20295;-81
2022/12/05 12:20:49;;;;;;;7.20;7.00;;;5.40;99.90;;;;;;5044177;28;20234;-81
2022/12/05 12:23:33;;;;;;;7.13;6.93;;;5.50;99.90;;;;;;5043476;28;20331;-80
2022/12/05 12:26:10;;;;;;;7.10;6.90;;;5.50;99.90;;;;;;5041890;28;21027;-81
2022/12/05 12:28:47;;;;;;;7.50;7.30;;;5.60;99.90;;;;;;5044617;28;20250;-81
2022/12/05 12:31:56;;;;;;;7.50;7.30;;;5.50;99.90;;;;;;5042239;28;20235;-80
2022/12/05 12:35:21;;;;;;;7.60;7.40;;;5.40;99.90;;;;;;5040505;28;20318;-81
2022/12/05 12:38:06;;;;;;;7.50;7.30;;;5.30;99.90;;;;;;5001523;28;20231;-79
2022/12/05 12:40:43;;;;;;;7.47;7.27;;;5.20;99.90;;;;;;5053464;28;20241;-80
2022/12/05 12:43:24;;;;;;;7.50;7.30;;;5.10;99.90;;;;;;5062591;28;20249;-80
2022/12/05 12:46:10;;;;;;;7.50;7.30;;;5.10;99.90;;;;;;5063085;28;20322;-81
2022/12/05 12:48:59;;;;;;;7.60;7.40;;;5.10;99.90;;;;;;5062842;28;20250;-80
2022/12/05 12:51:32;;;;;;;7.40;7.20;;;5.10;99.90;;;;;;5062185;28;20326;-80
2022/12/05 12:54:41;;;;;;;7.17;6.97;;;5.10;99.90;;;;;;5065750;28;20237;-81
2022/12/05 12:57:21;;;;;;;7.40;7.20;;;5.10;99.90;;;;;;5064272;28;20254;-81
2022/12/05 13:00:04;;;;;;;7.57;7.37;;;5.00;99.90;;;;;;5062000;28;20257;-81
2022/12/05 13:02:38;;;;;;;7.40;7.20;;;5.00;99.90;;;;;;5065540;28;20282;-82
2022/12/05 13:05:25;;;;;;;7.20;7.00;;;5.00;99.90;;;;;;5073452;28;20285;-82
2022/12/05 13:08:05;;;;;;;6.97;6.77;;;5.00;99.90;;;;;;5076934;28;20255;-80
2022/12/05 13:10:39;;;;;;;7.10;6.90;;;5.10;99.90;;;;;;5075227;28;20203;-82
2022/12/05 13:13:08;;;;;;;7.27;7.07;;;5.10;99.90;;;;;;5080124;28;20225;-82
2022/12/05 13:15:40;;;;;;;7.43;7.23;;;5.20;99.90;;;;;;5073139;28;20287;-79
2022/12/05 13:18:18;;;;;;;7.00;6.80;;;5.20;99.90;;;;;;5075439;28;20231;-80
2022/12/05 13:20:48;;;;;;;7.10;6.90;;;5.30;99.90;;;;;;5077895;28;20325;-80
2022/12/05 13:23:21;;;;;;;6.90;6.70;;;5.30;99.90;;;;;;5075608;28;20246;-80
2022/12/05 13:25:50;;;;;;;6.90;6.70;;;5.40;99.90;;;;;;5076354;28;20257;-80
2022/12/05 13:28:28;;;;;;;7.10;6.90;;;5.30;99.90;;;;;;5067825;28;20263;-79
2022/12/05 13:31:00;;;;;;;7.20;7.00;;;5.40;99.90;;;;;;5056843;28;20277;-80
2022/12/05 13:33:33;;;;;;;7.10;6.90;;;5.40;99.90;;;;;;5054030;28;20235;-79
2022/12/05 13:42:12;;;;;;;7.67;7.47;;;5.50;99.90;;;;;;5044433;28;20222;-79
2022/12/05 13:44:44;;;;;;;7.70;7.50;;;5.50;99.90;;;;;;5052671;28;20292;-80
2022/12/05 13:47:30;;;;;;;7.63;7.43;;;5.50;99.90;;;;;;5064594;28;20238;-80
2022/12/05 13:50:08;;;;;;;7.67;7.47;;;5.50;99.90;;;;;;5066938;28;20283;-80
2022/12/05 13:52:52;;;;;;;7.80;7.60;;;5.50;99.90;;;;;;5065952;28;20262;-80
2022/12/05 13:55:29;;;;;;;7.27;7.07;;;5.50;99.90;;;;;;5065344;28;20294;-80
2022/12/05 13:57:59;;;;;;;7.60;7.40;;;5.50;99.90;;;;;;5061383;28;20303;-80
2022/12/05 14:00:33;;;;;;;7.47;7.27;;;5.50;99.90;;;;;;5061498;28;20261;-81
2022/12/05 14:03:14;;;;;;;7.10;6.90;;;5.50;99.90;;;;;;5061039;28;20222;-80
2022/12/05 14:05:48;;;;;;;7.50;7.30;;;5.50;99.90;;;;;;5061636;28;20768;-80
2022/12/05 14:08:57;;;;;;;7.43;7.23;;;5.40;99.90;;;;;;5061246;28;20234;-80
2022/12/05 14:11:27;;;;;;;7.10;6.90;;;5.40;99.90;;;;;;5062179;28;20243;-81
2022/12/05 14:13:55;;;;;;;7.40;7.20;;;5.40;99.90;;;;;;5060915;28;20242;-80
2022/12/05 14:16:48;;;;;;;7.03;6.83;;;5.30;99.90;;;;;;5061568;28;20230;-80
2022/12/05 14:19:58;;;;;;;7.30;7.10;;;5.30;99.90;;;;;;5060797;28;20238;-79
2022/12/05 14:22:52;;;;;;;7.30;7.10;;;5.30;99.90;;;;;;5065621;28;20258;-81
2022/12/05 14:25:55;;;;;;;7.30;7.10;;;5.30;99.90;;;;;;5068414;28;20280;-80